Middleton, Tennessee
Current Conditions -  °F | °C
As of 10:55 AM on Saturday 22 Nov 2014 (Local Time) from KCRX Reporting Station
Scattered Clouds Scattered Clouds  
Wind Chill: 64°   Ceiling: Unl
Heat Index: 64°   Visibility: 10mi
Dew Point: 34°   Wind: 15mph
Humidity: 32%   Direction: 170°S
Pressure: 30.26"   Gusts: NA
Location:  35.06°N, 88.89°W
Report Text: KCRX 221655Z AUTO 17013KT 10SM SCT095 18/01 A3026 RMK AO2
Loading
Personal Weather Stations






























Interactive Weather Map New forecast layout! Learn more

10-Day Weather Forecast

Advertisements
Track Severe Weather on mobile